Hlavní strana
METAR-TAF:

METAR-TAF

Letiště :

Castellón de la Plana, Španělsko

zeměpisná šířka: 40-12-35N, zeměpisná délka: 0-04-11E, výška: 360 m

Aktuální stav počasí

Zpráva byla vytvořena před 35 minutami, v 09:00 UTC
Západojihozápadní vítr 3 kt, proměnlivý mezi jihojihozápadním a západním
Teplota 13°C
Vlhkost vzduchu 82%
Tlak 1023 hPa
Viditelnost: 9000 m

METAR: LECH 060900Z AUTO 24003KT 200V280 9000 NCD 13/10 Q1023

Čas: 11:35 (09:35 UTC)


TAF: chybějící

Stav a předpovědi počasí z více než 4 000 letišť (zprávy METAR a TAF).

Červené a žluté tečky na mapě představují dostupné meteorologické stanice.

Když kurzor umístíte na tečku, zobrazí se název stanice.

Pak kliknutím zobrazíte stav a předpověď počasí.

Chcete-li změnit mapu, kliknutím na zelené tlačítko se znaménkem +mapu přiblížíte, kliknutím na zelené tlačítko se znaménkem – mapu oddálíte a kliknutím na zelené šipky přejdete na sousední mapy.


METAR-TAF: